Time;durP1;ratioP1;P1;durP2;ratioP2;P2;SDS_P1;SDS_P2;PMS_P1;PMS_P2;Temp;Humidity;BMP_temperature;BMP_pressure;BME280_temperature;BME280_humidity;BME280_pressure;Samples;Min_cycle;Max_cycle;Signal;HPM_P1;HPM_P2
2022/10/26 00:01:13;;;;;;;;;;;;;;;;;;5131990;27;1889;-44
2022/10/26 00:03:41;;;;;;;;;;;;;;;;;;5131531;27;1775;-50
2022/10/26 00:06:10;;;;;;;;;;;;;;;;;;5131517;27;1800;-47
2022/10/26 00:08:37;;;;;;;;;;;;;;;;;;5131728;27;2029;-47
2022/10/26 00:11:05;;;;;;;;;;;;;;;;;;5131519;27;1842;-48
2022/10/26 00:13:32;;;;;;;;;;;;;;;;;;5131740;27;1825;-47
2022/10/26 00:15:59;;;;;;;;;;;;;;;;;;5131669;28;2008;-45
2022/10/26 00:18:31;;;;;;;;;;;;;;;;;;5131258;28;2084;-41
2022/10/26 00:21:01;;;;;;;;;;;;;;;;;;5131797;27;1593;-49
2022/10/26 00:23:29;;;;;;;;;;;;;;;;;;5131355;27;1943;-48
2022/10/26 00:25:57;;;;;;;;;;;;;;;;;;5131535;27;2042;-49
2022/10/26 00:28:24;;;;;;;;;;;;;;;;;;5131494;27;1588;-47
2022/10/26 00:30:51;;;;;;;;;;;;;;;;;;5135274;27;2028;-47
2022/10/26 00:33:18;;;;;;;;;;;;;;;;;;5135324;27;1997;-50
2022/10/26 00:35:54;;;;;;;;;;;;;;;;;;5135133;27;2042;-42
2022/10/26 00:38:22;;;;;;;;;;;;;;;;;;5135000;27;1905;-46
2022/10/26 00:40:49;;;;;;;;;;;;;;;;;;5135031;27;1843;-47
2022/10/26 00:43:25;;;;;;;;;;;;;;;;;;5135161;27;1821;-47
2022/10/26 00:45:54;;;;;;;;;;;;;;;;;;5134915;27;1946;-43
2022/10/26 00:48:33;;;;;;;;;;;;;;;;;;5134783;27;1958;-44
2022/10/26 00:51:03;;;;;;;;;;;;;;;;;;5134993;27;2178;-47
2022/10/26 00:53:31;;;;;;;;;;;;;;;;;;5134956;27;1783;-47
2022/10/26 00:55:59;;;;;;;;;;;;;;;;;;5135016;27;2222;-47
2022/10/26 00:58:26;;;;;;;;;;;;;;;;;;5134660;27;2129;-43
2022/10/26 01:00:53;;;;;;;;;;;;;;;;;;5134863;27;1910;-47
2022/10/26 01:03:23;;;;;;;;;;;;;;;;;;5134685;27;2121;-51
2022/10/26 01:05:52;;;;;;;;;;;;;;;;;;5134515;27;2161;-49
2022/10/26 01:08:20;;;;;;;;;;;;;;;;;;5134816;27;1948;-44
2022/10/26 01:10:47;;;;;;;;;;;;;;;;;;5134495;27;1971;-47
2022/10/26 01:13:16;;;;;;;;;;;;;;;;;;5134554;27;1746;-44
2022/10/26 01:15:43;;;;;;;;;;;;;;;;;;5134406;27;1866;-48
2022/10/26 01:18:19;;;;;;;;;;;;;;;;;;5134416;27;1963;-42
2022/10/26 01:20:46;;;;;;;;;;;;;;;;;;5134277;27;1851;-47
2022/10/26 01:23:29;;;;;;;;;;;;;;;;;;5134316;27;1977;-47
2022/10/26 01:25:59;;;;;;;;;;;;;;;;;;5134103;27;1672;-47
2022/10/26 01:28:35;;;;;;;;;;;;;;;;;;5134361;27;1600;-50
2022/10/26 01:31:03;;;;;;;;;;;;;;;;;;5134319;27;2161;-46
2022/10/26 01:33:34;;;;;;;;;;;;;;;;;;5134151;27;2057;-44
2022/10/26 01:36:21;;;;;;;;;;;;;;;;;;5134418;27;1786;-45
2022/10/26 01:38:51;;;;;;;;;;;;;;;;;;5133959;27;1978;-45
2022/10/26 01:41:22;;;;;;;;;;;;;;;;;;5132707;27;1808;-47
2022/10/26 01:43:53;;;;;;;;;;;;;;;;;;5133796;27;1925;-50
2022/10/26 01:46:21;;;;;;;;;;;;;;;;;;5133804;27;1673;-50
2022/10/26 01:48:50;;;;;;;;;;;;;;;;;;5133647;27;2028;-47
2022/10/26 01:51:18;;;;;;;;;;;;;;;;;;5133753;27;1600;-48
2022/10/26 01:53:45;;;;;;;;;;;;;;;;;;5133563;27;2087;-49
2022/10/26 01:56:21;;;;;;;;;;;;;;;;;;5133657;27;1613;-47
2022/10/26 01:58:48;;;;;;;;;;;;;;;;;;5133198;27;2043;-44
2022/10/26 02:01:15;;;;;;;;;;;;;;;;;;5133741;27;1808;-49
2022/10/26 02:03:46;;;;;;;;;;;;;;;;;;5133308;27;1988;-50
2022/10/26 02:06:32;;;;;;;;;;;;;;;;;;5133441;27;1951;-46
2022/10/26 02:09:22;;;;;;;;;;;;;;;;;;5133243;27;1849;-44
2022/10/26 02:11:51;;;;;;;;;;;;;;;;;;5133116;27;1929;-48
2022/10/26 02:14:36;;;;;;;;;;;;;;;;;;5112751;28;1836;-49
2022/10/26 02:17:06;;;;;;;;;;;;;;;;;;5112881;28;2153;-46
2022/10/26 02:19:36;;;;;;;;;;;;;;;;;;5112690;28;2094;-47
2022/10/26 02:22:11;;;;;;;;;;;;;;;;;;5112784;28;1833;-48
2022/10/26 02:24:38;;;;;;;;;;;;;;;;;;5112538;28;1758;-40
2022/10/26 02:27:10;;;;;;;;;;;;;;;;;;5112580;28;1571;-45
2022/10/26 02:29:39;;;;;;;;;;;;;;;;;;5112574;28;1856;-43
2022/10/26 02:32:07;;;;;;;;;;;;;;;;;;5112482;28;1984;-45
2022/10/26 02:34:36;;;;;;;;;;;;;;;;;;5112560;28;1684;-49
2022/10/26 02:37:04;;;;;;;;;;;;;;;;;;5112477;28;1567;-45
2022/10/26 02:39:33;;;;;;;;;;;;;;;;;;5112116;27;1957;-49
2022/10/26 02:42:01;;;;;;;;;;;;;;;;;;5112094;27;2196;-51
2022/10/26 02:44:30;;;;;;;;;;;;;;;;;;5112196;28;1578;-48
2022/10/26 02:46:58;;;;;;;;;;;;;;;;;;5111955;28;2081;-45
2022/10/26 02:49:25;;;;;;;;;;;;;;;;;;5111959;28;1524;-53
2022/10/26 02:51:59;;;;;;;;;;;;;;;;;;5110043;28;1683;-46
2022/10/26 02:54:45;;;;;;;;;;;;;;;;;;5111781;28;2221;-51
2022/10/26 02:57:32;;;;;;;;;;;;;;;;;;5111876;28;1752;-49
2022/10/26 03:00:00;;;;;;;;;;;;;;;;;;5111101;28;1879;-44
2022/10/26 03:02:29;;;;;;;;;;;;;;;;;;5111828;28;1721;-39
2022/10/26 03:04:56;;;;;;;;;;;;;;;;;;5111777;28;2345;-40
2022/10/26 03:07:24;;;;;;;;;;;;;;;;;;5111527;28;1721;-51
2022/10/26 03:09:51;;;;;;;;;;;;;;;;;;5111898;28;2058;-47
2022/10/26 03:12:18;;;;;;;;;;;;;;;;;;5121808;27;1711;-46
2022/10/26 03:14:45;;;;;;;;;;;;;;;;;;5132257;27;1994;-47
2022/10/26 03:17:12;;;;;;;;;;;;;;;;;;5132267;27;1830;-40
2022/10/26 03:19:39;;;;;;;;;;;;;;;;;;5132317;27;1968;-48
2022/10/26 03:22:06;;;;;;;;;;;;;;;;;;5130781;27;1885;-47
2022/10/26 03:24:33;;;;;;;;;;;;;;;;;;5132242;27;1816;-45
2022/10/26 03:27:00;;;;;;;;;;;;;;;;;;5115406;27;2018;-51
2022/10/26 03:29:28;;;;;;;;;;;;;;;;;;5111427;28;1856;-46
2022/10/26 03:31:55;;;;;;;;;;;;;;;;;;5111391;28;1777;-46
2022/10/26 03:34:22;;;;;;;;;;;;;;;;;;5111239;28;1705;-48
2022/10/26 03:36:49;;;;;;;;;;;;;;;;;;5111497;28;1513;-48
2022/10/26 03:39:16;;;;;;;;;;;;;;;;;;5111435;28;1910;-51
2022/10/26 03:41:43;;;;;;;;;;;;;;;;;;5127140;27;2279;-41
2022/10/26 03:44:10;;;;;;;;;;;;;;;;;;5111372;28;1543;-49
2022/10/26 03:46:37;;;;;;;;;;;;;;;;;;5111208;28;1968;-51
2022/10/26 03:49:04;;;;;;;;;;;;;;;;;;5111073;28;2109;-54
2022/10/26 03:51:32;;;;;;;;;;;;;;;;;;5110982;28;2044;-49
2022/10/26 03:53:59;;;;;;;;;;;;;;;;;;5129643;28;2101;-46
2022/10/26 03:56:26;;;;;;;;;;;;;;;;;;5131700;27;1763;-52
2022/10/26 03:58:53;;;;;;;;;;;;;;;;;;5131582;27;1987;-52
2022/10/26 04:01:20;;;;;;;;;;;;;;;;;;5131561;27;2075;-50
2022/10/26 04:03:47;;;;;;;;;;;;;;;;;;5131779;27;3297;-47
2022/10/26 04:06:15;;;;;;;;;;;;;;;;;;5136008;27;1833;-41
2022/10/26 04:08:42;;;;;;;;;;;;;;;;;;5136002;27;1878;-52
2022/10/26 04:11:09;;;;;;;;;;;;;;;;;;5135471;27;2170;-45
2022/10/26 04:13:36;;;;;;;;;;;;;;;;;;5135635;27;1743;-45
2022/10/26 04:16:03;;;;;;;;;;;;;;;;;;5135590;27;1681;-44
2022/10/26 04:18:30;;;;;;;;;;;;;;;;;;5135420;27;2127;-47
2022/10/26 04:21:02;;;;;;;;;;;;;;;;;;5135742;27;1510;-47
2022/10/26 04:23:29;;;;;;;;;;;;;;;;;;5135386;27;1922;-45
2022/10/26 04:25:56;;;;;;;;;;;;;;;;;;5135548;27;1825;-44
2022/10/26 04:28:23;;;;;;;;;;;;;;;;;;5118404;27;1546;-45
2022/10/26 04:30:52;;;;;;;;;;;;;;;;;;5114539;28;1706;-48
2022/10/26 04:33:20;;;;;;;;;;;;;;;;;;5114359;28;1789;-46
2022/10/26 04:35:47;;;;;;;;;;;;;;;;;;5114220;28;1632;-49
2022/10/26 04:38:14;;;;;;;;;;;;;;;;;;5114888;27;1978;-48
2022/10/26 04:40:41;;;;;;;;;;;;;;;;;;5114723;28;2123;-49
2022/10/26 04:43:08;;;;;;;;;;;;;;;;;;5114612;28;1669;-52
2022/10/26 04:45:35;;;;;;;;;;;;;;;;;;5114605;28;1911;-50
2022/10/26 04:48:03;;;;;;;;;;;;;;;;;;5114637;28;1920;-50
2022/10/26 04:50:30;;;;;;;;;;;;;;;;;;5114350;28;1943;-51
2022/10/26 04:52:57;;;;;;;;;;;;;;;;;;5114408;28;1722;-48
2022/10/26 04:55:25;;;;;;;;;;;;;;;;;;5114372;28;1749;-46
2022/10/26 04:57:52;;;;;;;;;;;;;;;;;;5114042;28;2046;-46
2022/10/26 05:00:21;;;;;;;;;;;;;;;;;;5114428;28;1957;-47
2022/10/26 05:02:48;;;;;;;;;;;;;;;;;;5113852;28;2004;-40
2022/10/26 05:05:16;;;;;;;;;;;;;;;;;;5114246;27;2068;-43
2022/10/26 05:07:43;;;;;;;;;;;;;;;;;;5114220;28;1847;-47
2022/10/26 05:10:10;;;;;;;;;;;;;;;;;;5113976;28;1988;-49
2022/10/26 05:12:37;;;;;;;;;;;;;;;;;;5114542;28;1953;-48
2022/10/26 05:15:05;;;;;;;;;;;;;;;;;;5113773;28;1823;-46
2022/10/26 05:17:34;;;;;;;;;;;;;;;;;;5113891;28;1708;-41
2022/10/26 05:20:04;;;;;;;;;;;;;;;;;;5113853;28;1977;-47
2022/10/26 05:22:31;;;;;;;;;;;;;;;;;;5113827;28;1989;-45
2022/10/26 05:24:58;;;;;;;;;;;;;;;;;;5113567;28;1470;-49
2022/10/26 05:27:25;;;;;;;;;;;;;;;;;;5113661;28;1825;-46
2022/10/26 05:29:53;;;;;;;;;;;;;;;;;;5113702;28;2204;-54
2022/10/26 05:32:20;;;;;;;;;;;;;;;;;;5113877;28;1836;-45
2022/10/26 05:34:47;;;;;;;;;;;;;;;;;;5113796;28;2255;-47
2022/10/26 05:37:14;;;;;;;;;;;;;;;;;;5113586;28;1645;-43
2022/10/26 05:39:42;;;;;;;;;;;;;;;;;;5113456;28;1968;-43
2022/10/26 05:42:09;;;;;;;;;;;;;;;;;;5113504;28;1608;-46
2022/10/26 05:44:36;;;;;;;;;;;;;;;;;;5113442;28;1802;-47
2022/10/26 05:47:03;;;;;;;;;;;;;;;;;;5113356;28;1722;-47
2022/10/26 05:49:30;;;;;;;;;;;;;;;;;;5113369;28;1489;-49
2022/10/26 05:51:57;;;;;;;;;;;;;;;;;;5113075;28;2126;-43
2022/10/26 05:54:24;;;;;;;;;;;;;;;;;;5113039;28;2073;-45
2022/10/26 05:56:51;;;;;;;;;;;;;;;;;;5113209;28;1888;-47
2022/10/26 05:59:18;;;;;;;;;;;;;;;;;;5113237;27;1967;-45
2022/10/26 06:01:45;;;;;;;;;;;;;;;;;;5112975;28;1838;-43
2022/10/26 06:04:37;;;;;;;;;;;;;;;;;;5112765;28;1894;-48
2022/10/26 06:07:10;;;;;;;;;;;;;;;;;;5107688;28;2041;-46
2022/10/26 06:09:38;;;;;;;;;;;;;;;;;;5112998;28;1647;-47
2022/10/26 06:12:06;;;;;;;;;;;;;;;;;;5112953;28;1584;-49
2022/10/26 06:14:34;;;;;;;;;;;;;;;;;;5113314;28;2037;-51
2022/10/26 06:17:14;;;;;;;;;;;;;;;;;;5112681;28;2013;-49
2022/10/26 06:19:53;;;;;;;;;;;;;;;;;;5112307;28;1978;-48
2022/10/26 06:22:39;;;;;;;;;;;;;;;;;;5112912;28;1754;-43
2022/10/26 06:25:06;;;;;;;;;;;;;;;;;;5112638;28;1993;-50
2022/10/26 06:27:39;;;;;;;;;;;;;;;;;;5112029;28;1421;-47
2022/10/26 06:30:08;;;;;;;;;;;;;;;;;;5112534;28;2142;-49
2022/10/26 06:32:36;;;;;;;;;;;;;;;;;;5112657;28;1771;-47
2022/10/26 06:35:07;;;;;;;;;;;;;;;;;;5112365;28;2016;-50
2022/10/26 06:37:35;;;;;;;;;;;;;;;;;;5112359;28;1518;-44
2022/10/26 06:40:03;;;;;;;;;;;;;;;;;;5112262;28;2251;-49
2022/10/26 06:42:30;;;;;;;;;;;;;;;;;;5112144;28;1948;-45
2022/10/26 06:44:58;;;;;;;;;;;;;;;;;;5112239;28;1646;-47
2022/10/26 06:47:51;;;;;;;;;;;;;;;;;;5112015;28;2024;-41
2022/10/26 06:50:26;;;;;;;;;;;;;;;;;;5095597;28;2093;-45
2022/10/26 06:52:59;;;;;;;;;;;;;;;;;;5112403;28;2094;-40
2022/10/26 06:55:38;;;;;;;;;;;;;;;;;;5111781;28;2170;-39
2022/10/26 06:58:07;;;;;;;;;;;;;;;;;;5111835;28;1464;-40
2022/10/26 07:00:34;;;;;;;;;;;;;;;;;;5111358;28;2007;-45
2022/10/26 07:03:02;;;;;;;;;;;;;;;;;;5111935;28;1659;-39
2022/10/26 07:05:29;;;;;;;;;;;;;;;;;;5111542;28;1736;-39
2022/10/26 07:07:57;;;;;;;;;;;;;;;;;;5111827;28;2016;-40
2022/10/26 07:10:24;;;;;;;;;;;;;;;;;;5111933;27;2090;-39
2022/10/26 07:12:51;;;;;;;;;;;;;;;;;;5111657;28;1537;-39
2022/10/26 07:15:18;;;;;;;;;;;;;;;;;;5110079;28;1991;-51
2022/10/26 07:17:46;;;;;;;;;;;;;;;;;;5111835;28;1545;-39
2022/10/26 07:20:18;;;;;;;;;;;;;;;;;;5110164;28;2193;-39
2022/10/26 07:22:50;;;;;;;;;;;;;;;;;;5111715;28;1868;-40
2022/10/26 07:25:18;;;;;;;;;;;;;;;;;;5111510;28;2426;-50
2022/10/26 07:27:45;;;;;;;;;;;;;;;;;;5111453;28;1880;-40
2022/10/26 07:30:12;;;;;;;;;;;;;;;;;;5111542;28;2244;-39
2022/10/26 07:32:39;;;;;;;;;;;;;;;;;;5111367;28;1745;-47
2022/10/26 07:35:07;;;;;;;;;;;;;;;;;;5110243;28;2546;-40
2022/10/26 07:37:34;;;;;;;;;;;;;;;;;;5111071;28;1805;-44
2022/10/26 07:40:01;;;;;;;;;;;;;;;;;;5111334;28;2079;-41
2022/10/26 07:42:32;;;;;;;;;;;;;;;;;;5111012;28;1830;-40
2022/10/26 07:44:59;;;;;;;;;;;;;;;;;;5111362;28;1553;-45
2022/10/26 07:47:27;;;;;;;;;;;;;;;;;;5111489;28;1737;-39
2022/10/26 07:49:54;;;;;;;;;;;;;;;;;;5111531;28;1485;-39
2022/10/26 07:52:21;;;;;;;;;;;;;;;;;;5111284;28;1312;-40
2022/10/26 07:54:49;;;;;;;;;;;;;;;;;;5110885;28;2190;-40
2022/10/26 07:57:17;;;;;;;;;;;;;;;;;;5111306;28;1753;-39
2022/10/26 07:59:44;;;;;;;;;;;;;;;;;;5110708;28;2237;-50
2022/10/26 08:02:11;;;;;;;;;;;;;;;;;;5110994;28;1892;-39
2022/10/26 08:04:38;;;;;;;;;;;;;;;;;;5110541;28;1666;-39
2022/10/26 08:07:05;;;;;;;;;;;;;;;;;;5110934;28;2102;-40
2022/10/26 08:09:32;;;;;;;;;;;;;;;;;;5111116;28;1919;-41
2022/10/26 08:11:59;;;;;;;;;;;;;;;;;;5118788;28;2212;-50
2022/10/26 08:14:26;;;;;;;;;;;;;;;;;;5131888;28;1802;-40
2022/10/26 08:16:53;;;;;;;;;;;;;;;;;;5131533;28;1446;-39
2022/10/26 08:19:20;;;;;;;;;;;;;;;;;;5131352;27;2496;-46
2022/10/26 08:21:51;;;;;;;;;;;;;;;;;;5131393;27;1901;-45
2022/10/26 08:24:18;;;;;;;;;;;;;;;;;;5131352;28;1449;-39
2022/10/26 08:26:45;;;;;;;;;;;;;;;;;;5131373;27;1884;-39
2022/10/26 08:29:14;;;;;;;;;;;;;;;;;;5131559;27;1671;-39
2022/10/26 08:31:41;;;;;;;;;;;;;;;;;;5122080;28;2044;-39
2022/10/26 08:34:08;;;;;;;;;;;;;;;;;;5110936;28;2185;-40
2022/10/26 08:36:35;;;;;;;;;;;;;;;;;;5110704;28;1819;-39
2022/10/26 08:39:04;;;;;;;;;;;;;;;;;;5110807;28;1938;-46
2022/10/26 08:41:33;;;;;;;;;;;;;;;;;;5111247;28;1352;-41
2022/10/26 08:44:06;;;;;;;;;;;;;;;;;;5111076;28;1893;-42
2022/10/26 08:46:36;;;;;;;;;;;;;;;;;;5110797;28;1577;-39
2022/10/26 08:49:12;;;;;;;;;;;;;;;;;;5110553;28;1721;-40
2022/10/26 08:51:40;;;;;;;;;;;;;;;;;;5114306;28;1689;-50
2022/10/26 08:54:25;;;;;;;;;;;;;;;;;;5114252;28;1974;-39
2022/10/26 08:56:57;;;;;;;;;;;;;;;;;;5114398;28;2032;-39
2022/10/26 08:59:25;;;;;;;;;;;;;;;;;;5113989;28;2045;-43
2022/10/26 09:01:53;;;;;;;;;;;;;;;;;;5114350;28;1645;-38
2022/10/26 09:04:27;;;;;;;;;;;;;;;;;;5113443;28;2014;-39
2022/10/26 09:07:01;;;;;;;;;;;;;;;;;;5114110;28;1612;-50
2022/10/26 09:09:38;;;;;;;;;;;;;;;;;;5113909;28;1917;-40
2022/10/26 09:12:35;;;;;;;;;;;;;;;;;;5113751;28;1904;-39
2022/10/26 09:15:14;;;;;;;;;;;;;;;;;;5105208;28;1816;-46
2022/10/26 09:17:48;;;;;;;;;;;;;;;;;;5113833;28;1858;-40
2022/10/26 09:20:37;;;;;;;;;;;;;;;;;;5113456;27;2214;-38
2022/10/26 09:23:15;;;;;;;;;;;;;;;;;;5113739;28;2002;-39
2022/10/26 09:25:47;;;;;;;;;;;;;;;;;;5113611;28;1621;-48
2022/10/26 09:28:19;;;;;;;;;;;;;;;;;;5113899;27;1418;-40
2022/10/26 09:30:47;;;;;;;;;;;;;;;;;;5113554;27;2346;-38
2022/10/26 09:33:24;;;;;;;;;;;;;;;;;;5113718;27;1567;-39
2022/10/26 09:35:51;;;;;;;;;;;;;;;;;;5113718;28;1680;-40
2022/10/26 09:38:44;;;;;;;;;;;;;;;;;;5113441;28;1962;-42
2022/10/26 09:41:37;;;;;;;;;;;;;;;;;;5104572;28;1902;-40
2022/10/26 09:44:26;;;;;;;;;;;;;;;;;;5113729;28;1400;-40
2022/10/26 09:46:59;;;;;;;;;;;;;;;;;;5113558;28;1877;-39
2022/10/26 09:49:40;;;;;;;;;;;;;;;;;;5113073;28;2004;-40
2022/10/26 09:52:10;;;;;;;;;;;;;;;;;;5113249;28;2182;-43
2022/10/26 09:54:45;;;;;;;;;;;;;;;;;;5113273;28;1882;-40
2022/10/26 09:57:14;;;;;;;;;;;;;;;;;;5112193;28;2231;-42
2022/10/26 09:59:42;;;;;;;;;;;;;;;;;;5113138;28;2100;-40
2022/10/26 10:02:28;;;;;;;;;;;;;;;;;;5112122;28;2123;-45
2022/10/26 10:04:59;;;;;;;;;;;;;;;;;;5112767;28;2311;-47
2022/10/26 10:07:29;;;;;;;;;;;;;;;;;;5113165;28;1704;-39
2022/10/26 10:10:07;;;;;;;;;;;;;;;;;;5112974;28;2026;-39
2022/10/26 10:12:38;;;;;;;;;;;;;;;;;;5112922;28;1910;-38
2022/10/26 10:15:15;;;;;;;;;;;;;;;;;;5112994;28;1574;-40
2022/10/26 10:17:51;;;;;;;;;;;;;;;;;;5112714;28;1831;-39
2022/10/26 10:20:37;;;;;;;;;;;;;;;;;;5112461;28;1979;-40
2022/10/26 10:23:04;;;;;;;;;;;;;;;;;;5112817;28;2218;-40
2022/10/26 10:25:35;;;;;;;;;;;;;;;;;;5112872;28;1932;-40
2022/10/26 10:28:18;;;;;;;;;;;;;;;;;;5112820;28;1501;-45
2022/10/26 10:31:00;;;;;;;;;;;;;;;;;;5112459;28;2034;-40
2022/10/26 10:33:40;;;;;;;;;;;;;;;;;;5112321;28;1989;-40
2022/10/26 10:36:14;;;;;;;;;;;;;;;;;;5111453;28;2172;-39
2022/10/26 10:38:43;;;;;;;;;;;;;;;;;;5112200;28;1787;-40
2022/10/26 10:41:15;;;;;;;;;;;;;;;;;;5112271;28;1906;-40
2022/10/26 10:43:46;;;;;;;;;;;;;;;;;;5112045;28;1741;-40
2022/10/26 10:46:21;;;;;;;;;;;;;;;;;;5112460;28;2027;-39
2022/10/26 10:48:52;;;;;;;;;;;;;;;;;;5112173;28;1936;-40
2022/10/26 10:51:21;;;;;;;;;;;;;;;;;;5112306;28;1997;-39
2022/10/26 10:53:55;;;;;;;;;;;;;;;;;;5112176;28;2012;-40
2022/10/26 10:56:35;;;;;;;;;;;;;;;;;;5112043;28;1783;-40
2022/10/26 10:59:09;;;;;;;;;;;;;;;;;;5111988;28;1951;-43
2022/10/26 11:01:47;;;;;;;;;;;;;;;;;;5111923;28;2235;-39
2022/10/26 11:04:19;;;;;;;;;;;;;;;;;;5111884;28;1981;-39
2022/10/26 11:06:48;;;;;;;;;;;;;;;;;;5111779;28;2083;-45
2022/10/26 11:09:24;;;;;;;;;;;;;;;;;;5111738;28;1643;-40
2022/10/26 11:11:57;;;;;;;;;;;;;;;;;;5111657;28;1460;-39
2022/10/26 11:14:31;;;;;;;;;;;;;;;;;;5111547;28;2269;-49
2022/10/26 11:17:30;;;;;;;;;;;;;;;;;;5111839;28;2143;-42
2022/10/26 11:20:01;;;;;;;;;;;;;;;;;;5111753;28;1980;-46
2022/10/26 11:22:40;;;;;;;;;;;;;;;;;;5111751;28;1890;-39
2022/10/26 11:25:15;;;;;;;;;;;;;;;;;;5111525;28;1763;-39
2022/10/26 11:27:47;;;;;;;;;;;;;;;;;;5111401;28;2113;-43
2022/10/26 11:30:19;;;;;;;;;;;;;;;;;;5111311;28;2161;-49
2022/10/26 11:32:49;;;;;;;;;;;;;;;;;;5111514;28;1916;-39
2022/10/26 11:35:20;;;;;;;;;;;;;;;;;;5111519;28;1805;-43
2022/10/26 11:38:11;;;;;;;;;;;;;;;;;;5111137;28;2277;-50
2022/10/26 11:40:46;;;;;;;;;;;;;;;;;;5105608;28;1983;-40
2022/10/26 11:43:38;;;;;;;;;;;;;;;;;;5111498;28;1806;-40
2022/10/26 11:46:09;;;;;;;;;;;;;;;;;;5105884;28;2099;-40
2022/10/26 11:49:00;;;;;;;;;;;;;;;;;;5111476;28;1773;-48
2022/10/26 11:51:45;;;;;;;;;;;;;;;;;;5090129;28;2218;-43
2022/10/26 11:54:21;;;;;;;;;;;;;;;;;;5111442;28;2250;-40
2022/10/26 11:56:50;;;;;;;;;;;;;;;;;;5110943;28;1986;-41
2022/10/26 11:59:22;;;;;;;;;;;;;;;;;;5111276;28;2063;-49
2022/10/26 12:01:51;;;;;;;;;;;;;;;;;;5111205;28;2019;-40
2022/10/26 12:04:21;;;;;;;;;;;;;;;;;;5111087;28;1974;-40
2022/10/26 12:06:53;;;;;;;;;;;;;;;;;;5111075;28;1893;-39
2022/10/26 12:09:33;;;;;;;;;;;;;;;;;;5110963;28;2056;-49
2022/10/26 12:12:07;;;;;;;;;;;;;;;;;;5118949;28;2141;-40
2022/10/26 12:14:42;;;;;;;;;;;;;;;;;;5131111;27;1655;-39
2022/10/26 12:17:13;;;;;;;;;;;;;;;;;;5131729;27;1796;-40
2022/10/26 12:19:50;;;;;;;;;;;;;;;;;;5131380;28;1848;-40
2022/10/26 12:22:18;;;;;;;;;;;;;;;;;;5131528;28;1363;-50
2022/10/26 12:25:04;;;;;;;;;;;;;;;;;;5132222;27;2105;-40
2022/10/26 12:27:39;;;;;;;;;;;;;;;;;;5135774;27;2114;-45
2022/10/26 12:30:18;;;;;;;;;;;;;;;;;;5135638;27;1919;-40
2022/10/26 12:32:47;;;;;;;;;;;;;;;;;;5135446;27;1396;-40
2022/10/26 12:35:31;;;;;;;;;;;;;;;;;;5134201;27;2195;-40
2022/10/26 12:38:21;;;;;;;;;;;;;;;;;;5135212;27;1735;-40
2022/10/26 12:41:09;;;;;;;;;;;;;;;;;;5113780;27;2068;-39
2022/10/26 12:43:37;;;;;;;;;;;;;;;;;;5127995;27;2425;-40
2022/10/26 12:46:11;;;;;;;;;;;;;;;;;;5135190;27;1966;-40
2022/10/26 12:48:40;;;;;;;;;;;;;;;;;;5134977;27;2150;-39
2022/10/26 12:51:20;;;;;;;;;;;;;;;;;;5134925;27;2106;-50
2022/10/26 12:53:57;;;;;;;;;;;;;;;;;;5131746;27;1652;-46
2022/10/26 12:56:33;;;;;;;;;;;;;;;;;;5114512;28;1841;-45
2022/10/26 12:59:16;;;;;;;;;;;;;;;;;;5112956;28;2050;-40
2022/10/26 13:02:21;;;;;;;;;;;;;;;;;;5114426;28;2055;-40
2022/10/26 13:05:08;;;;;;;;;;;;;;;;;;5114340;28;1901;-42
2022/10/26 13:07:39;;;;;;;;;;;;;;;;;;5114096;28;1943;-43
2022/10/26 13:10:13;;;;;;;;;;;;;;;;;;5114207;28;1856;-40
2022/10/26 13:12:55;;;;;;;;;;;;;;;;;;5114291;28;2005;-39
2022/10/26 13:15:27;;;;;;;;;;;;;;;;;;5114138;28;1862;-40
2022/10/26 13:18:07;;;;;;;;;;;;;;;;;;5113739;28;1917;-41
2022/10/26 13:20:37;;;;;;;;;;;;;;;;;;5113975;28;1983;-41
2022/10/26 13:23:15;;;;;;;;;;;;;;;;;;5114164;28;1482;-40
2022/10/26 13:26:00;;;;;;;;;;;;;;;;;;5114392;28;2136;-51
2022/10/26 13:28:31;;;;;;;;;;;;;;;;;;5113676;28;2025;-40
2022/10/26 13:30:58;;;;;;;;;;;;;;;;;;5113848;28;1775;-41
2022/10/26 13:33:31;;;;;;;;;;;;;;;;;;5113693;28;1870;-40
2022/10/26 13:36:05;;;;;;;;;;;;;;;;;;5113523;28;2359;-43
2022/10/26 13:38:36;;;;;;;;;;;;;;;;;;5113369;28;1950;-40
2022/10/26 13:41:05;;;;;;;;;;;;;;;;;;5113677;28;2332;-45
2022/10/26 13:43:35;;;;;;;;;;;;;;;;;;5113462;28;1767;-51
2022/10/26 13:46:03;;;;;;;;;;;;;;;;;;5113308;28;1811;-46
2022/10/26 13:48:32;;;;;;;;;;;;;;;;;;5113269;28;2001;-46
2022/10/26 13:51:02;;;;;;;;;;;;;;;;;;5113414;28;1472;-49
2022/10/26 13:53:30;;;;;;;;;;;;;;;;;;5113137;27;1844;-49
2022/10/26 13:56:26;;;;;;;;;;;;;;;;;;5113229;28;1823;-44
2022/10/26 13:58:59;;;;;;;;;;;;;;;;;;5113195;28;1828;-39
2022/10/26 14:01:30;;;;;;;;;;;;;;;;;;5112691;28;1910;-49
2022/10/26 14:03:58;;;;;;;;;;;;;;;;;;5113105;27;1895;-46
2022/10/26 14:06:29;;;;;;;;;;;;;;;;;;5112992;28;1490;-40
2022/10/26 14:09:04;;;;;;;;;;;;;;;;;;5113060;28;2359;-40
2022/10/26 14:11:34;;;;;;;;;;;;;;;;;;5112798;28;1573;-42
2022/10/26 14:14:03;;;;;;;;;;;;;;;;;;5112737;28;2234;-40
2022/10/26 14:16:35;;;;;;;;;;;;;;;;;;5112843;28;1799;-40
2022/10/26 14:19:02;;;;;;;;;;;;;;;;;;5112888;28;1944;-46
2022/10/26 14:21:31;;;;;;;;;;;;;;;;;;5112762;28;1982;-40
2022/10/26 14:24:02;;;;;;;;;;;;;;;;;;5112553;28;1923;-39
2022/10/26 14:26:39;;;;;;;;;;;;;;;;;;5112262;28;1725;-50
2022/10/26 14:29:16;;;;;;;;;;;;;;;;;;5110736;28;1966;-40
2022/10/26 14:31:43;;;;;;;;;;;;;;;;;;5112531;28;2111;-40
2022/10/26 14:34:11;;;;;;;;;;;;;;;;;;5111783;28;1725;-43
2022/10/26 14:36:38;;;;;;;;;;;;;;;;;;5112674;28;1670;-39
2022/10/26 14:39:08;;;;;;;;;;;;;;;;;;5112238;28;2281;-39
2022/10/26 14:41:35;;;;;;;;;;;;;;;;;;5112222;28;1913;-39
2022/10/26 14:44:02;;;;;;;;;;;;;;;;;;5112297;28;2355;-42
2022/10/26 14:46:33;;;;;;;;;;;;;;;;;;5112263;28;1707;-48
2022/10/26 14:49:06;;;;;;;;;;;;;;;;;;5111811;28;2085;-48
2022/10/26 14:51:35;;;;;;;;;;;;;;;;;;5112071;28;1740;-53
2022/10/26 14:54:19;;;;;;;;;;;;;;;;;;5112341;28;1940;-41
2022/10/26 14:56:46;;;;;;;;;;;;;;;;;;5111876;28;2056;-40
2022/10/26 14:59:23;;;;;;;;;;;;;;;;;;5111951;28;1786;-39
2022/10/26 15:01:56;;;;;;;;;;;;;;;;;;5111880;28;2274;-40
2022/10/26 15:04:28;;;;;;;;;;;;;;;;;;5111948;28;1431;-41
2022/10/26 15:07:07;;;;;;;;;;;;;;;;;;5111945;28;2199;-39
2022/10/26 15:09:38;;;;;;;;;;;;;;;;;;5111752;28;1854;-48
2022/10/26 15:12:05;;;;;;;;;;;;;;;;;;5111691;28;2011;-45
2022/10/26 15:14:35;;;;;;;;;;;;;;;;;;5111861;28;1764;-49
2022/10/26 15:17:15;;;;;;;;;;;;;;;;;;5111707;28;1887;-44
2022/10/26 15:19:44;;;;;;;;;;;;;;;;;;5111806;28;1837;-47
2022/10/26 15:22:20;;;;;;;;;;;;;;;;;;5111386;28;1922;-48
2022/10/26 15:24:51;;;;;;;;;;;;;;;;;;5111605;28;1553;-50
2022/10/26 15:27:18;;;;;;;;;;;;;;;;;;5111516;28;2110;-46
2022/10/26 15:29:55;;;;;;;;;;;;;;;;;;5111471;28;1703;-44
2022/10/26 15:32:30;;;;;;;;;;;;;;;;;;5111595;28;2069;-48
2022/10/26 15:35:24;;;;;;;;;;;;;;;;;;5111369;28;1770;-41
2022/10/26 15:37:52;;;;;;;;;;;;;;;;;;5109631;28;2073;-41
2022/10/26 15:40:21;;;;;;;;;;;;;;;;;;5111422;28;1400;-43
2022/10/26 15:42:53;;;;;;;;;;;;;;;;;;5111338;28;1990;-39
2022/10/26 15:45:34;;;;;;;;;;;;;;;;;;5111375;28;1249;-40
2022/10/26 15:48:17;;;;;;;;;;;;;;;;;;5111263;28;1824;-43
2022/10/26 15:50:47;;;;;;;;;;;;;;;;;;5110195;28;1966;-46
2022/10/26 15:53:32;;;;;;;;;;;;;;;;;;5111349;28;2199;-47
2022/10/26 15:56:01;;;;;;;;;;;;;;;;;;5111349;28;1875;-41
2022/10/26 15:58:35;;;;;;;;;;;;;;;;;;5110048;28;2243;-41
2022/10/26 16:01:14;;;;;;;;;;;;;;;;;;5114376;28;1929;-50
2022/10/26 16:03:42;;;;;;;;;;;;;;;;;;5114304;28;1763;-45
2022/10/26 16:06:16;;;;;;;;;;;;;;;;;;5114847;28;1894;-44
2022/10/26 16:08:48;;;;;;;;;;;;;;;;;;5114997;28;2086;-54
2022/10/26 16:11:16;;;;;;;;;;;;;;;;;;5115337;27;1674;-48
2022/10/26 16:13:45;;;;;;;;;;;;;;;;;;5115294;28;1642;-48
2022/10/26 16:16:13;;;;;;;;;;;;;;;;;;5115338;28;1713;-41
2022/10/26 16:18:40;;;;;;;;;;;;;;;;;;5115321;28;2116;-50
2022/10/26 16:21:15;;;;;;;;;;;;;;;;;;5114852;28;2074;-44
2022/10/26 16:23:46;;;;;;;;;;;;;;;;;;5115045;28;1843;-44
2022/10/26 16:26:17;;;;;;;;;;;;;;;;;;5128370;27;1871;-47
2022/10/26 16:28:45;;;;;;;;;;;;;;;;;;5134444;27;1866;-44
2022/10/26 16:31:16;;;;;;;;;;;;;;;;;;5134076;27;2052;-42
2022/10/26 16:33:44;;;;;;;;;;;;;;;;;;5135592;27;1961;-48
2022/10/26 16:36:11;;;;;;;;;;;;;;;;;;5135563;27;2054;-50
2022/10/26 16:38:47;;;;;;;;;;;;;;;;;;5135527;27;2158;-44
2022/10/26 16:41:16;;;;;;;;;;;;;;;;;;5135275;27;1992;-49
2022/10/26 16:43:43;;;;;;;;;;;;;;;;;;5135370;27;1916;-51
2022/10/26 16:46:19;;;;;;;;;;;;;;;;;;5134834;27;1696;-48
2022/10/26 16:48:47;;;;;;;;;;;;;;;;;;5135306;27;1596;-50
2022/10/26 16:51:16;;;;;;;;;;;;;;;;;;5135193;27;1940;-51
2022/10/26 16:53:48;;;;;;;;;;;;;;;;;;5134942;27;2233;-48
2022/10/26 16:56:18;;;;;;;;;;;;;;;;;;5135249;27;1525;-50
2022/10/26 16:58:45;;;;;;;;;;;;;;;;;;5134740;27;2080;-46
2022/10/26 17:01:16;;;;;;;;;;;;;;;;;;5135143;27;1988;-46
2022/10/26 17:03:44;;;;;;;;;;;;;;;;;;5134944;27;1612;-43
2022/10/26 17:06:11;;;;;;;;;;;;;;;;;;5134546;27;1924;-50
2022/10/26 17:08:39;;;;;;;;;;;;;;;;;;5134912;27;1689;-47
2022/10/26 17:11:17;;;;;;;;;;;;;;;;;;5133748;27;1946;-39
2022/10/26 17:13:53;;;;;;;;;;;;;;;;;;5112850;28;1176;-49
2022/10/26 17:16:22;;;;;;;;;;;;;;;;;;5114144;28;2135;-47
2022/10/26 17:18:56;;;;;;;;;;;;;;;;;;5113856;28;1671;-46
2022/10/26 17:21:31;;;;;;;;;;;;;;;;;;5114100;28;1969;-50
2022/10/26 17:24:04;;;;;;;;;;;;;;;;;;5114049;28;1919;-47
2022/10/26 17:26:32;;;;;;;;;;;;;;;;;;5113990;28;2020;-46
2022/10/26 17:28:59;;;;;;;;;;;;;;;;;;5113948;28;2092;-50
2022/10/26 17:31:26;;;;;;;;;;;;;;;;;;5113659;28;2184;-46
2022/10/26 17:33:55;;;;;;;;;;;;;;;;;;5113799;28;1517;-49